createdAt,value
2022-10-26T00:01:21.388Z,101273.38
2022-10-26T00:03:48.657Z,101265.59
2022-10-26T00:06:22.425Z,101267.94
2022-10-26T00:08:52.539Z,101264.34
2022-10-26T00:11:20.190Z,101268.38
2022-10-26T00:13:48.061Z,101274.50
2022-10-26T00:16:33.258Z,101268.41
2022-10-26T00:19:00.515Z,101271.16
2022-10-26T00:21:28.495Z,101270.13
2022-10-26T00:23:55.610Z,101268.84
2022-10-26T00:26:24.844Z,101271.41
2022-10-26T00:28:57.230Z,101271.69
2022-10-26T00:31:25.158Z,101274.13
2022-10-26T00:33:57.111Z,101272.91
2022-10-26T00:36:25.966Z,101269.28
2022-10-26T00:38:56.049Z,101269.94
2022-10-26T00:41:28.751Z,101277.41
2022-10-26T00:43:56.601Z,101275.31
2022-10-26T00:46:37.881Z,101289.50
2022-10-26T00:51:54.312Z,101284.72
2022-10-26T00:54:21.781Z,101289.44
2022-10-26T00:56:52.199Z,101285.38
2022-10-26T00:59:21.711Z,101292.06
2022-10-26T01:01:49.931Z,101286.59
2022-10-26T01:04:18.406Z,101289.13
2022-10-26T01:06:46.718Z,101288.03
2022-10-26T01:09:13.891Z,101285.56
2022-10-26T01:11:43.156Z,101287.03
2022-10-26T01:14:12.767Z,101287.63
2022-10-26T01:17:08.089Z,101281.03
2022-10-26T01:20:38.442Z,101283.59
2022-10-26T01:23:24.567Z,101274.97
2022-10-26T01:26:07.035Z,101276.00
2022-10-26T01:28:55.455Z,101279.00
2022-10-26T01:31:33.102Z,101278.50
2022-10-26T01:34:09.160Z,101287.28
2022-10-26T01:36:55.458Z,101285.38
2022-10-26T01:39:36.417Z,101290.38
2022-10-26T01:42:05.641Z,101283.09
2022-10-26T01:44:42.476Z,101287.28
2022-10-26T01:47:15.644Z,101288.59
2022-10-26T01:49:49.927Z,101285.19
2022-10-26T01:52:19.678Z,101283.41
2022-10-26T01:54:47.321Z,101285.63
2022-10-26T01:57:20.228Z,101274.97
2022-10-26T02:00:10.065Z,101282.25
2022-10-26T02:03:17.249Z,101287.38
2022-10-26T02:06:04.615Z,101293.16
2022-10-26T02:09:02.796Z,101286.72
2022-10-26T02:11:41.870Z,101287.94
2022-10-26T02:14:17.777Z,101294.56
2022-10-26T02:16:58.596Z,101288.84
2022-10-26T02:19:50.661Z,101291.59
2022-10-26T02:22:23.674Z,101290.31
2022-10-26T02:24:54.786Z,101299.56
2022-10-26T02:27:31.496Z,101287.88
2022-10-26T02:30:02.244Z,101294.28
2022-10-26T02:32:35.117Z,101293.97
2022-10-26T02:35:05.361Z,101301.38
2022-10-26T02:37:35.768Z,101298.50
2022-10-26T02:40:09.183Z,101298.25
2022-10-26T02:42:37.670Z,101301.94
2022-10-26T02:45:11.222Z,101307.38
2022-10-26T02:47:41.304Z,101306.63
2022-10-26T02:50:09.004Z,101307.44
2022-10-26T02:53:01.553Z,101304.94
2022-10-26T02:55:36.924Z,101310.75
2022-10-26T02:58:12.355Z,101309.22
2022-10-26T03:00:39.895Z,101310.00
2022-10-26T03:03:07.100Z,101315.69
2022-10-26T03:05:36.318Z,101314.25
2022-10-26T03:08:12.592Z,101316.59
2022-10-26T03:10:46.318Z,101319.97
2022-10-26T03:13:14.375Z,101317.13
2022-10-26T03:15:41.594Z,101322.09
2022-10-26T03:18:08.778Z,101324.97
2022-10-26T03:20:36.031Z,101320.44
2022-10-26T03:23:03.361Z,101331.22
2022-10-26T03:25:30.639Z,101314.56
2022-10-26T03:28:02.467Z,101313.84
2022-10-26T03:30:33.222Z,101318.78
2022-10-26T03:33:05.061Z,101322.19
2022-10-26T03:35:32.626Z,101326.50
2022-10-26T03:37:59.737Z,101336.56
2022-10-26T03:40:29.355Z,101335.19
2022-10-26T03:42:56.500Z,101328.13
2022-10-26T03:45:23.656Z,101325.06
2022-10-26T03:47:51.002Z,101334.81
2022-10-26T03:50:21.951Z,101332.81
2022-10-26T03:52:50.725Z,101336.22
2022-10-26T03:55:20.659Z,101344.28
2022-10-26T03:57:50.137Z,101334.16
2022-10-26T04:00:18.130Z,101338.97
2022-10-26T04:02:57.547Z,101336.75
2022-10-26T04:05:27.299Z,101340.44
2022-10-26T04:08:04.587Z,101348.56
2022-10-26T04:10:32.440Z,101342.16
2022-10-26T04:13:23.962Z,101348.81
2022-10-26T04:15:51.538Z,101353.41
2022-10-26T04:18:18.789Z,101346.59
2022-10-26T04:20:56.851Z,101347.69
2022-10-26T04:25:50.965Z,101355.25
2022-10-26T04:28:19.509Z,101356.25
2022-10-26T04:30:48.107Z,101357.56
2022-10-26T04:33:15.208Z,101352.50
2022-10-26T04:35:43.113Z,101351.00
2022-10-26T04:38:10.780Z,101363.31
2022-10-26T04:40:37.895Z,101356.31
2022-10-26T04:43:07.266Z,101359.34
2022-10-26T04:45:35.028Z,101361.63
2022-10-26T04:48:06.032Z,101355.75
2022-10-26T04:50:36.066Z,101358.41
2022-10-26T04:53:04.689Z,101356.53
2022-10-26T04:55:31.772Z,101365.72
2022-10-26T04:58:01.812Z,101364.44
2022-10-26T05:00:33.135Z,101361.53
2022-10-26T05:03:02.823Z,101357.56
2022-10-26T05:05:32.421Z,101361.06
2022-10-26T05:08:04.520Z,101353.28
2022-10-26T05:10:31.856Z,101358.41
2022-10-26T05:13:02.302Z,101356.16
2022-10-26T05:15:32.224Z,101355.41
2022-10-26T05:18:03.436Z,101353.59
2022-10-26T05:20:33.534Z,101359.25
2022-10-26T05:23:04.136Z,101360.41
2022-10-26T05:25:37.297Z,101367.47
2022-10-26T05:28:13.387Z,101371.78
2022-10-26T05:30:45.389Z,101374.81
2022-10-26T05:33:13.993Z,101378.38
2022-10-26T05:35:41.731Z,101378.47
2022-10-26T05:38:17.692Z,101389.34
2022-10-26T05:40:53.444Z,101385.06
2022-10-26T05:43:25.189Z,101386.59
2022-10-26T05:45:52.468Z,101386.69
2022-10-26T05:48:23.032Z,101384.47
2022-10-26T05:50:50.288Z,101392.56
2022-10-26T05:53:17.590Z,101402.22
2022-10-26T05:55:47.266Z,101398.16
2022-10-26T05:58:15.712Z,101396.81
2022-10-26T06:00:59.299Z,101409.25
2022-10-26T06:03:52.400Z,101404.28
2022-10-26T06:06:19.852Z,101408.22
2022-10-26T06:08:47.396Z,101406.66
2022-10-26T06:11:17.349Z,101412.63
2022-10-26T06:13:44.896Z,101407.03
2022-10-26T06:16:26.831Z,101409.72
2022-10-26T06:19:42.349Z,101418.22
2022-10-26T06:22:48.256Z,101415.31
2022-10-26T06:25:52.810Z,101406.78
2022-10-26T06:28:47.300Z,101414.38
2022-10-26T06:31:17.711Z,101424.56
2022-10-26T06:33:45.280Z,101422.66
2022-10-26T06:36:27.708Z,101422.84
2022-10-26T06:39:18.927Z,101427.72
2022-10-26T06:41:46.478Z,101425.22
2022-10-26T06:44:23.736Z,101421.94
2022-10-26T06:47:37.805Z,101427.50
2022-10-26T06:50:38.976Z,101434.38
2022-10-26T06:56:13.432Z,101436.50
2022-10-26T06:58:44.814Z,101433.94
2022-10-26T07:01:12.867Z,101438.50
2022-10-26T07:03:40.093Z,101436.72
2022-10-26T07:06:07.498Z,101440.38
2022-10-26T07:08:37.303Z,101446.50
2022-10-26T07:11:04.870Z,101447.59
2022-10-26T07:13:31.952Z,101450.94
2022-10-26T07:15:59.004Z,101446.28
2022-10-26T07:18:28.519Z,101448.88
2022-10-26T07:21:07.234Z,101455.84
2022-10-26T07:23:34.284Z,101463.88
2022-10-26T07:26:01.405Z,101463.97
2022-10-26T07:28:28.609Z,101463.81
2022-10-26T07:30:58.256Z,101457.28
2022-10-26T07:33:25.361Z,101460.34
2022-10-26T07:35:54.233Z,101470.31
2022-10-26T07:38:25.889Z,101477.59
2022-10-26T07:40:54.405Z,101478.97
2022-10-26T07:43:21.622Z,101484.41
2022-10-26T07:45:51.897Z,101486.78
2022-10-26T07:48:21.548Z,101485.53
2022-10-26T07:50:51.023Z,101488.66
2022-10-26T07:53:18.012Z,101497.19
2022-10-26T07:55:57.197Z,101491.66
2022-10-26T07:58:26.334Z,101495.56
2022-10-26T08:00:54.565Z,101497.56
2022-10-26T08:03:22.124Z,101506.72
2022-10-26T08:05:55.895Z,101504.41
2022-10-26T08:08:23.436Z,101513.03
2022-10-26T08:10:55.068Z,101513.59
2022-10-26T08:13:24.480Z,101509.22
2022-10-26T08:16:00.139Z,101513.78
2022-10-26T08:18:28.227Z,101517.31
2022-10-26T08:21:01.814Z,101514.69
2022-10-26T08:23:37.546Z,101519.56
2022-10-26T08:26:05.146Z,101508.09
2022-10-26T08:28:32.391Z,101512.50
2022-10-26T08:30:59.527Z,101506.63
2022-10-26T08:33:26.716Z,101508.19
2022-10-26T08:36:06.513Z,101493.50
2022-10-26T08:38:36.885Z,101506.41
2022-10-26T08:41:10.644Z,101509.84
2022-10-26T08:43:50.453Z,101513.72
2022-10-26T08:46:35.137Z,101506.69
2022-10-26T08:49:44.319Z,101512.44
2022-10-26T08:52:18.029Z,101507.16
2022-10-26T08:54:57.472Z,101513.69
2022-10-26T08:57:39.752Z,101514.50
2022-10-26T09:00:28.203Z,101509.41
2022-10-26T09:02:55.410Z,101509.13
2022-10-26T09:05:43.968Z,101515.44
2022-10-26T09:08:56.789Z,101517.31
2022-10-26T09:11:47.707Z,101516.09
2022-10-26T09:15:04.733Z,101523.38
2022-10-26T09:17:57.659Z,101524.44
2022-10-26T09:20:48.696Z,101524.44
2022-10-26T09:23:31.637Z,101530.22
2022-10-26T09:26:05.868Z,101531.06
2022-10-26T09:28:37.836Z,101543.06
2022-10-26T09:31:05.856Z,101540.31
2022-10-26T09:33:39.822Z,101539.03
2022-10-26T09:36:22.273Z,101545.44
2022-10-26T09:39:42.483Z,101544.50
2022-10-26T09:42:24.672Z,101540.41
2022-10-26T09:45:17.115Z,101548.56
2022-10-26T09:47:52.942Z,101550.84
2022-10-26T09:50:37.227Z,101553.50
2022-10-26T09:53:04.730Z,101556.03
2022-10-26T09:55:34.533Z,101550.31
2022-10-26T09:58:06.448Z,101551.97
2022-10-26T10:03:32.153Z,101560.66
2022-10-26T10:06:27.085Z,101560.75
2022-10-26T10:09:21.119Z,101571.03
2022-10-26T10:11:56.656Z,101569.50
2022-10-26T10:14:57.651Z,101571.03
2022-10-26T10:17:25.932Z,101562.41
2022-10-26T10:19:53.552Z,101578.81
2022-10-26T10:22:25.787Z,101565.59
2022-10-26T10:25:01.246Z,101567.88
2022-10-26T10:27:33.590Z,101567.44
2022-10-26T10:30:22.534Z,101569.31
2022-10-26T10:33:11.392Z,101574.16
2022-10-26T10:35:49.625Z,101567.72
2022-10-26T10:38:21.236Z,101571.72
2022-10-26T10:40:58.297Z,101570.75
2022-10-26T10:43:26.696Z,101569.47
2022-10-26T10:45:59.644Z,101575.63
2022-10-26T10:48:29.456Z,101565.91
2022-10-26T10:51:03.359Z,101578.00
2022-10-26T10:53:45.719Z,101581.97
2022-10-26T10:56:15.490Z,101576.50
2022-10-26T10:59:11.055Z,101580.72
2022-10-26T11:02:20.641Z,101573.03
2022-10-26T11:05:33.414Z,101584.94
2022-10-26T11:08:14.247Z,101577.56
2022-10-26T11:10:53.528Z,101576.69
2022-10-26T11:14:16.989Z,101580.00
2022-10-26T11:16:59.270Z,101592.38
2022-10-26T11:19:46.361Z,101589.50
2022-10-26T11:22:24.222Z,101578.13
2022-10-26T11:25:06.065Z,101587.34
2022-10-26T11:28:11.118Z,101591.22
2022-10-26T11:30:52.371Z,101592.56
2022-10-26T11:33:40.150Z,101592.19
2022-10-26T11:36:18.474Z,101597.66
2022-10-26T11:39:02.753Z,101599.16
2022-10-26T11:41:56.005Z,101597.16
2022-10-26T11:44:38.684Z,101600.00
2022-10-26T11:47:23.923Z,101599.44
2022-10-26T11:50:21.878Z,101594.09
2022-10-26T11:53:03.720Z,101591.81
2022-10-26T11:55:31.815Z,101596.78
2022-10-26T11:57:59.204Z,101589.94
2022-10-26T12:00:27.096Z,101591.03
2022-10-26T12:03:30.474Z,101586.88
2022-10-26T12:05:57.582Z,101581.75
2022-10-26T12:08:43.934Z,101585.81
2022-10-26T12:11:58.590Z,101587.91
2022-10-26T12:14:39.556Z,101585.09
2022-10-26T12:17:28.358Z,101589.44
2022-10-26T12:20:53.724Z,101585.66
2022-10-26T12:23:33.919Z,101591.94
2022-10-26T12:26:39.871Z,101583.47
2022-10-26T12:29:06.797Z,101584.09
2022-10-26T12:31:36.865Z,101578.78
2022-10-26T12:34:22.245Z,101582.31
2022-10-26T12:36:55.368Z,101575.72
2022-10-26T12:39:32.902Z,101577.34
2022-10-26T12:42:26.007Z,101583.94
2022-10-26T12:44:53.521Z,101578.56
2022-10-26T12:47:32.818Z,101580.03
2022-10-26T12:50:09.426Z,101577.13
2022-10-26T12:52:48.863Z,101585.97
2022-10-26T12:55:36.603Z,101591.34
2022-10-26T12:58:45.143Z,101583.31
2022-10-26T13:01:24.261Z,101588.88
2022-10-26T13:04:09.211Z,101593.63
2022-10-26T13:06:48.027Z,101588.88
2022-10-26T13:09:33.158Z,101586.22
2022-10-26T13:12:03.861Z,101584.78
2022-10-26T13:14:41.310Z,101584.56
2022-10-26T13:17:28.784Z,101582.44
2022-10-26T13:20:01.003Z,101579.28
2022-10-26T13:22:31.429Z,101586.22
2022-10-26T13:25:03.963Z,101583.13
2022-10-26T13:27:36.468Z,101572.63
2022-10-26T13:30:09.639Z,101577.34
2022-10-26T13:33:02.845Z,101569.34
2022-10-26T13:35:32.593Z,101577.59
2022-10-26T13:38:07.479Z,101573.44
2022-10-26T13:40:38.493Z,101576.88
2022-10-26T13:43:19.729Z,101583.44
2022-10-26T13:46:01.329Z,101580.41
2022-10-26T13:48:41.865Z,101592.16
2022-10-26T13:51:30.315Z,101593.13
2022-10-26T13:54:03.351Z,101584.75
2022-10-26T13:56:39.496Z,101586.41
2022-10-26T13:59:13.869Z,101586.78
2022-10-26T14:01:41.283Z,101582.50
2022-10-26T14:04:28.821Z,101588.63
2022-10-26T14:06:56.099Z,101581.72
2022-10-26T14:09:25.798Z,101586.16
2022-10-26T14:12:00.128Z,101581.66
2022-10-26T14:14:34.992Z,101582.75
2022-10-26T14:17:02.791Z,101588.09
2022-10-26T14:19:36.471Z,101587.59
2022-10-26T14:22:04.386Z,101592.44
2022-10-26T14:24:48.256Z,101586.59
2022-10-26T14:27:24.144Z,101589.56
2022-10-26T14:30:17.129Z,101595.91
2022-10-26T14:32:40.807Z,101588.06
2022-10-26T14:35:13.704Z,101592.59
2022-10-26T14:38:26.519Z,101592.84
2022-10-26T14:40:56.291Z,101591.78
2022-10-26T14:43:26.063Z,101587.22
2022-10-26T14:45:57.430Z,101587.81
2022-10-26T14:48:35.026Z,101593.56
2022-10-26T14:51:06.049Z,101591.56
2022-10-26T14:53:40.645Z,101592.38
2022-10-26T14:56:41.009Z,101595.88
2022-10-26T14:59:32.279Z,101595.47
2022-10-26T15:02:11.378Z,101601.47
2022-10-26T15:04:42.194Z,101601.34
2022-10-26T15:07:15.400Z,101594.59
2022-10-26T15:09:46.907Z,101602.03
2022-10-26T15:12:36.972Z,101605.53
2022-10-26T15:15:23.741Z,101602.03
2022-10-26T15:17:57.809Z,101600.38
2022-10-26T15:20:27.668Z,101609.66
2022-10-26T15:23:02.873Z,101607.00
2022-10-26T15:25:34.879Z,101604.50
2022-10-26T15:28:31.162Z,101610.47
2022-10-26T15:31:11.718Z,101613.09
2022-10-26T15:34:04.857Z,101608.69
2022-10-26T15:36:35.839Z,101612.47
2022-10-26T15:39:02.966Z,101603.97
2022-10-26T15:41:40.035Z,101599.63
2022-10-26T15:44:20.461Z,101609.44
2022-10-26T15:46:47.836Z,101611.97
2022-10-26T15:49:20.802Z,101603.25
2022-10-26T15:51:49.491Z,101611.72
2022-10-26T15:54:16.718Z,101609.56
2022-10-26T15:56:44.316Z,101608.47
2022-10-26T15:59:18.594Z,101612.47
2022-10-26T16:01:48.337Z,101611.28
2022-10-26T16:04:15.993Z,101612.13
2022-10-26T16:06:43.423Z,101620.38
2022-10-26T16:09:17.918Z,101617.22
2022-10-26T16:11:45.496Z,101624.06
2022-10-26T16:14:13.150Z,101618.28
2022-10-26T16:16:42.592Z,101621.28
2022-10-26T16:19:30.455Z,101625.97
2022-10-26T16:21:59.036Z,101623.16
2022-10-26T16:24:30.663Z,101619.16
2022-10-26T16:26:58.354Z,101625.84
2022-10-26T16:29:25.471Z,101631.63
2022-10-26T16:31:52.624Z,101631.91
2022-10-26T16:34:19.777Z,101635.47
2022-10-26T16:36:46.957Z,101644.09
2022-10-26T16:39:14.295Z,101634.28
2022-10-26T16:41:41.415Z,101644.75
2022-10-26T16:44:08.630Z,101645.78
2022-10-26T16:46:35.800Z,101647.28
2022-10-26T16:49:02.886Z,101650.88
2022-10-26T16:51:32.677Z,101652.59
2022-10-26T16:54:00.114Z,101651.31
2022-10-26T16:56:30.126Z,101652.78
2022-10-26T16:58:57.780Z,101647.28
2022-10-26T17:01:27.945Z,101662.34
2022-10-26T17:03:55.252Z,101666.59
2022-10-26T17:06:22.506Z,101665.81
2022-10-26T17:08:49.928Z,101665.56
2022-10-26T17:11:23.137Z,101672.41
2022-10-26T17:13:54.954Z,101665.09
2022-10-26T17:16:24.981Z,101664.16
2022-10-26T17:18:54.065Z,101675.03
2022-10-26T17:21:38.170Z,101682.06
2022-10-26T17:24:06.874Z,101682.06
2022-10-26T17:26:36.486Z,101690.47
2022-10-26T17:29:04.151Z,101685.00
2022-10-26T17:31:31.299Z,101684.47
2022-10-26T17:33:58.801Z,101689.28
2022-10-26T17:36:27.649Z,101695.44
2022-10-26T17:38:58.484Z,101694.22
2022-10-26T17:41:25.717Z,101692.84
2022-10-26T17:43:53.938Z,101694.31
2022-10-26T17:46:27.294Z,101692.00
2022-10-26T17:48:59.538Z,101695.63
2022-10-26T17:51:28.362Z,101705.84
2022-10-26T17:53:59.134Z,101707.09
2022-10-26T17:56:29.983Z,101716.22
2022-10-26T17:59:03.889Z,101711.63
2022-10-26T18:01:32.061Z,101716.94
2022-10-26T18:03:59.638Z,101722.91
2022-10-26T18:06:27.673Z,101714.41
2022-10-26T18:08:59.394Z,101716.47
2022-10-26T18:11:27.608Z,101718.66
2022-10-26T18:14:00.954Z,101727.94
2022-10-26T18:16:29.011Z,101718.50
2022-10-26T18:19:01.706Z,101718.28
2022-10-26T18:21:32.695Z,101719.00
2022-10-26T18:24:00.359Z,101711.75
2022-10-26T18:26:31.744Z,101718.34
2022-10-26T18:29:01.005Z,101721.69
2022-10-26T18:31:33.171Z,101722.81
2022-10-26T18:34:02.399Z,101725.63
2022-10-26T18:36:30.970Z,101732.94
2022-10-26T18:39:00.667Z,101732.59
2022-10-26T18:41:28.874Z,101745.53
2022-10-26T18:43:59.974Z,101736.75
2022-10-26T18:46:33.856Z,101743.56
2022-10-26T18:49:01.227Z,101742.91
2022-10-26T18:51:34.679Z,101746.75
2022-10-26T18:54:02.297Z,101751.22
2022-10-26T18:56:29.584Z,101757.84
2022-10-26T18:59:05.893Z,101758.84
2022-10-26T19:01:35.919Z,101756.19
2022-10-26T19:04:07.482Z,101755.22
2022-10-26T19:06:40.680Z,101753.53
2022-10-26T19:09:10.195Z,101753.38
2022-10-26T19:11:38.335Z,101757.19
2022-10-26T19:14:07.035Z,101757.19
2022-10-26T19:16:45.758Z,101762.81
2022-10-26T19:19:15.316Z,101762.19
2022-10-26T19:21:42.415Z,101764.66
2022-10-26T19:24:21.519Z,101766.31
2022-10-26T19:26:50.663Z,101757.50
2022-10-26T19:29:21.772Z,101774.75
2022-10-26T19:31:53.176Z,101771.78
2022-10-26T19:34:22.714Z,101780.88
2022-10-26T19:36:49.907Z,101782.69
2022-10-26T19:39:18.238Z,101786.00
2022-10-26T19:41:48.560Z,101793.00
2022-10-26T19:44:16.572Z,101782.69
2022-10-26T19:46:45.095Z,101795.94
2022-10-26T19:49:13.140Z,101797.47
2022-10-26T19:51:40.366Z,101802.94
2022-10-26T19:54:07.731Z,101808.41
2022-10-26T19:56:37.104Z,101807.38
2022-10-26T19:59:05.630Z,101806.41
2022-10-26T20:01:33.226Z,101808.56
2022-10-26T20:04:02.595Z,101808.91
2022-10-26T20:06:31.065Z,101817.53
2022-10-26T20:08:58.874Z,101811.91
2022-10-26T20:11:26.152Z,101815.03
2022-10-26T20:13:55.584Z,101816.53
2022-10-26T20:16:22.895Z,101813.56
2022-10-26T20:18:49.993Z,101814.88
2022-10-26T20:21:18.001Z,101810.91
2022-10-26T20:23:46.869Z,101818.69
2022-10-26T20:26:20.151Z,101814.22
2022-10-26T20:28:51.980Z,101818.16
2022-10-26T20:31:20.144Z,101813.69
2022-10-26T20:34:00.754Z,101810.06
2022-10-26T20:36:30.833Z,101808.19
2022-10-26T20:39:01.283Z,101808.09
2022-10-26T20:41:28.724Z,101807.19
2022-10-26T20:43:58.051Z,101799.28
2022-10-26T20:46:27.812Z,101797.25
2022-10-26T20:48:55.321Z,101798.94
2022-10-26T20:51:38.549Z,101803.94
2022-10-26T20:54:26.077Z,101799.63
2022-10-26T20:56:59.694Z,101797.78
2022-10-26T20:59:50.970Z,101810.94
2022-10-26T21:02:21.280Z,101813.91
2022-10-26T21:04:48.502Z,101817.88
2022-10-26T21:07:15.665Z,101813.88
2022-10-26T21:09:42.897Z,101810.06
2022-10-26T21:12:12.671Z,101814.69
2022-10-26T21:14:41.036Z,101816.53
2022-10-26T21:17:11.337Z,101813.19
2022-10-26T21:19:38.466Z,101818.34
2022-10-26T21:22:05.555Z,101818.50
2022-10-26T21:24:32.912Z,101815.38
2022-10-26T21:27:00.011Z,101817.34
2022-10-26T21:29:27.179Z,101822.69
2022-10-26T21:31:54.254Z,101824.81
2022-10-26T21:34:21.361Z,101819.50
2022-10-26T21:36:48.574Z,101823.53
2022-10-26T21:39:15.617Z,101818.53
2022-10-26T21:41:43.986Z,101824.28
2022-10-26T21:44:24.655Z,101823.13
2022-10-26T21:46:58.312Z,101826.00
2022-10-26T21:49:25.405Z,101817.03
2022-10-26T21:51:52.439Z,101815.88
2022-10-26T21:54:19.572Z,101820.00
2022-10-26T21:56:49.153Z,101818.84
2022-10-26T21:59:18.339Z,101815.72
2022-10-26T22:01:45.509Z,101822.19
2022-10-26T22:04:12.809Z,101822.19
2022-10-26T22:06:42.528Z,101817.69
2022-10-26T22:09:12.119Z,101817.53
2022-10-26T22:11:39.277Z,101829.63
2022-10-26T22:14:06.572Z,101824.34
2022-10-26T22:16:33.852Z,101825.78
2022-10-26T22:19:07.546Z,101821.00
2022-10-26T22:21:38.369Z,101824.63
2022-10-26T22:24:06.467Z,101821.50
2022-10-26T22:26:39.133Z,101822.16
2022-10-26T22:29:10.179Z,101812.53
2022-10-26T22:31:42.259Z,101822.81
2022-10-26T22:34:16.170Z,101820.50
2022-10-26T22:36:46.269Z,101821.16
2022-10-26T22:39:13.392Z,101817.19
2022-10-26T22:41:40.519Z,101812.91
2022-10-26T22:44:07.676Z,101810.94
2022-10-26T22:46:34.950Z,101806.25
2022-10-26T22:49:03.149Z,101798.81
2022-10-26T22:51:33.495Z,101807.75
2022-10-26T22:54:05.294Z,101810.25
2022-10-26T22:56:35.450Z,101808.56
2022-10-26T22:59:02.829Z,101816.56
2022-10-26T23:01:39.276Z,101813.88
2022-10-26T23:04:07.997Z,101813.09
2022-10-26T23:06:35.169Z,101816.72
2022-10-26T23:09:02.424Z,101824.50
2022-10-26T23:11:29.969Z,101811.72
2022-10-26T23:14:00.830Z,101820.19
2022-10-26T23:16:31.350Z,101825.19
2022-10-26T23:18:59.858Z,101821.16
2022-10-26T23:21:28.441Z,101820.53
2022-10-26T23:23:56.632Z,101822.34
2022-10-26T23:26:23.969Z,101829.47
2022-10-26T23:28:53.737Z,101827.97
2022-10-26T23:31:27.007Z,101837.75
2022-10-26T23:33:56.441Z,101837.44
2022-10-26T23:36:25.882Z,101844.41
2022-10-26T23:38:55.263Z,101838.94
2022-10-26T23:41:22.491Z,101848.41
2022-10-26T23:43:51.909Z,101848.72
2022-10-26T23:46:19.061Z,101838.09
2022-10-26T23:48:46.316Z,101839.44
2022-10-26T23:51:13.401Z,101839.75
2022-10-26T23:53:40.634Z,101845.06
2022-10-26T23:56:08.113Z,101838.41
2022-10-26T23:58:37.665Z,101836.44
